Time;durP1;ratioP1;P1;durP2;ratioP2;P2;SDS_P1;SDS_P2;PMS_P1;PMS_P2;Temp;Humidity;BMP_temperature;BMP_pressure;BME280_temperature;BME280_humidity;BME280_pressure;Samples;Min_cycle;Max_cycle;Signal;HPM_P1;HPM_P2
2023/04/03 00:00:25;;;;;;;;;;;3.60;99.90;;;;;;5074701;28;19924;-64
2023/04/03 00:02:57;;;;;;;;;;;3.60;99.90;;;;;;5056120;28;19921;-63
2023/04/03 00:05:29;;;;;;;;;;;3.60;99.90;;;;;;5073314;28;19924;-64
2023/04/03 00:07:55;;;;;;;;;;;3.60;99.90;;;;;;5072085;28;19924;-64
2023/04/03 00:10:27;;;;;;;;;;;3.60;99.90;;;;;;5070710;28;19925;-64
2023/04/03 00:12:54;;;;;;;;;;;3.60;99.90;;;;;;5055353;28;19920;-64
2023/04/03 00:15:21;;;;;;;;;;;3.60;99.90;;;;;;5074195;28;19966;-64
2023/04/03 00:17:52;;;;;;;;;;;3.70;99.90;;;;;;5073146;28;19924;-64
2023/04/03 00:20:24;;;;;;;;;;;3.60;99.90;;;;;;5073332;28;19920;-64
2023/04/03 00:22:56;;;;;;;;;;;3.60;99.90;;;;;;5073999;28;19926;-64
2023/04/03 00:25:28;;;;;;;;;;;3.60;99.90;;;;;;5073340;28;20017;-64
2023/04/03 00:28:00;;;;;;;;;;;3.60;99.90;;;;;;5073497;28;19924;-63
2023/04/03 00:30:32;;;;;;;;;;;3.70;99.90;;;;;;5073080;28;19921;-64
2023/04/03 00:33:03;;;;;;;;;;;3.60;99.90;;;;;;5074132;28;19921;-64
2023/04/03 00:35:30;;;;;;;;;;;3.60;99.90;;;;;;5072947;28;19920;-64
2023/04/03 00:38:02;;;;;;;;;;;3.60;99.90;;;;;;5053456;28;19974;-64
2023/04/03 00:40:35;;;;;;;;;;;3.60;99.90;;;;;;5066026;28;19920;-64
2023/04/03 00:43:18;;;;;;;;;;;3.60;99.90;;;;;;5072451;28;19921;-64
2023/04/03 00:45:54;;;;;;;;;;;3.60;99.90;;;;;;5055027;28;20376;-64
2023/04/03 00:48:32;;;;;;;;;;;3.60;99.90;;;;;;5039811;28;19924;-64
2023/04/03 00:51:06;;;;;;;;;;;3.60;99.90;;;;;;5052770;28;20396;-64
2023/04/03 00:54:07;;;;;;;;;;;3.60;99.90;;;;;;5055495;28;19921;-64
2023/04/03 00:56:35;;;;;;;;;;;3.50;99.90;;;;;;5050485;28;20320;-64
2023/04/03 00:59:11;;;;;;;;;;;3.50;99.90;;;;;;5072297;28;20438;-64
2023/04/03 01:01:43;;;;;;;;;;;3.50;99.90;;;;;;5055359;28;19920;-64
2023/04/03 01:04:36;;;;;;;;;;;3.50;99.90;;;;;;5066022;28;20024;-64
2023/04/03 01:07:10;;;;;;;;;;;3.50;99.90;;;;;;5052610;28;19928;-64
2023/04/03 01:09:37;;;;;;;;;;;3.50;99.90;;;;;;5053496;28;20007;-64
2023/04/03 01:12:33;;;;;;;;;;;3.50;99.90;;;;;;5051198;28;19947;-63
2023/04/03 01:15:07;;;;;;;;;;;3.50;99.90;;;;;;5046523;28;19924;-63
2023/04/03 01:17:40;;;;;;;;;;;3.50;99.90;;;;;;5069460;28;19931;-63
2023/04/03 01:20:21;;;;;;;;;;;3.50;99.90;;;;;;5071652;28;19920;-64
2023/04/03 01:22:51;;;;;;;;;;;3.50;99.90;;;;;;5071306;28;20006;-63
2023/04/03 01:25:23;;;;;;;;;;;3.40;99.90;;;;;;5070909;28;19943;-64
2023/04/03 01:27:57;;;;;;;;;;;3.40;99.90;;;;;;5051984;28;20394;-63
2023/04/03 01:30:31;;;;;;;;;;;3.40;99.90;;;;;;5071088;28;19920;-64
2023/04/03 01:32:58;;;;;;;;;;;3.50;99.90;;;;;;5053218;28;19928;-63
2023/04/03 01:35:31;;;;;;;;;;;3.40;99.90;;;;;;5054214;28;19924;-64
2023/04/03 01:38:02;;;;;;;;;;;3.40;99.90;;;;;;5067665;28;19924;-63
2023/04/03 01:40:34;;;;;;;;;;;3.40;99.90;;;;;;5076057;28;19957;-64
2023/04/03 01:43:06;;;;;;;;;;;3.40;99.90;;;;;;5057941;28;20380;-64
2023/04/03 01:45:37;;;;;;;;;;;3.50;99.90;;;;;;5055712;28;20039;-64
2023/04/03 01:48:09;;;;;;;;;;;3.40;99.90;;;;;;5070754;28;19924;-64
2023/04/03 01:50:41;;;;;;;;;;;3.40;99.90;;;;;;5070303;28;20051;-64
2023/04/03 01:53:08;;;;;;;;;;;3.40;99.90;;;;;;5070531;28;19920;-64
2023/04/03 01:55:35;;;;;;;;;;;3.40;99.90;;;;;;5054042;28;19978;-64
2023/04/03 01:58:07;;;;;;;;;;;3.40;99.90;;;;;;5070449;28;19920;-64
2023/04/03 02:00:35;;;;;;;;;;;3.40;99.90;;;;;;5068543;28;19924;-63
2023/04/03 02:03:02;;;;;;;;;;;3.30;99.90;;;;;;5070399;28;19928;-64
2023/04/03 02:05:34;;;;;;;;;;;3.30;99.90;;;;;;5072079;28;19928;-64
2023/04/03 02:08:06;;;;;;;;;;;3.30;99.90;;;;;;5053384;28;20434;-64
2023/04/03 02:10:38;;;;;;;;;;;3.20;99.90;;;;;;5071758;28;20395;-64
2023/04/03 02:13:10;;;;;;;;;;;3.30;99.90;;;;;;5069785;28;20028;-64
2023/04/03 02:15:39;;;;;;;;;;;3.30;99.90;;;;;;5053918;28;19928;-63
2023/04/03 02:18:11;;;;;;;;;;;3.30;99.90;;;;;;5035555;28;19921;-63
2023/04/03 02:20:43;;;;;;;;;;;3.30;99.90;;;;;;5070161;28;19920;-64
2023/04/03 02:23:10;;;;;;;;;;;3.30;99.90;;;;;;5070106;28;20339;-64
2023/04/03 02:25:43;;;;;;;;;;;3.20;99.90;;;;;;5053422;28;19920;-65
2023/04/03 02:28:10;;;;;;;;;;;3.30;99.90;;;;;;5069913;28;19928;-64
2023/04/03 02:30:41;;;;;;;;;;;3.30;99.90;;;;;;5071428;28;19954;-64
2023/04/03 02:33:13;;;;;;;;;;;3.30;99.90;;;;;;5070196;28;19924;-64
2023/04/03 02:35:40;;;;;;;;;;;3.20;99.90;;;;;;5063557;28;19920;-63
2023/04/03 02:38:13;;;;;;;;;;;3.30;99.90;;;;;;5068096;28;19925;-64
2023/04/03 02:40:45;;;;;;;;;;;3.30;99.90;;;;;;5037443;28;19928;-64
2023/04/03 02:43:18;;;;;;;;;;;3.30;99.90;;;;;;5069671;28;19930;-64
2023/04/03 02:45:44;;;;;;;;;;;3.30;99.90;;;;;;5053392;28;20697;-63
2023/04/03 02:48:17;;;;;;;;;;;3.30;99.90;;;;;;5069542;28;19971;-64
2023/04/03 02:50:43;;;;;;;;;;;3.30;99.90;;;;;;5036389;28;19928;-63
2023/04/03 02:53:15;;;;;;;;;;;3.40;99.90;;;;;;5051274;28;19964;-63
2023/04/03 02:55:42;;;;;;;;;;;3.30;99.90;;;;;;5034554;28;20015;-64
2023/04/03 02:58:14;;;;;;;;;;;3.30;99.90;;;;;;5068747;28;19920;-63
2023/04/03 03:00:46;;;;;;;;;;;3.30;99.90;;;;;;5062700;28;19935;-63
2023/04/03 03:03:18;;;;;;;;;;;3.30;99.90;;;;;;5069701;28;19927;-64
2023/04/03 03:05:49;;;;;;;;;;;3.30;99.90;;;;;;5068362;28;20373;-63
2023/04/03 03:08:19;;;;;;;;;;;3.30;99.90;;;;;;5048500;28;19967;-64
2023/04/03 03:10:51;;;;;;;;;;;3.30;99.90;;;;;;5054771;28;19924;-64
2023/04/03 03:13:18;;;;;;;;;;;3.30;99.90;;;;;;5070813;28;20419;-64
2023/04/03 03:15:44;;;;;;;;;;;3.20;99.90;;;;;;5052760;28;19920;-64
2023/04/03 03:18:11;;;;;;;;;;;3.20;99.90;;;;;;5069735;28;19920;-64
2023/04/03 03:20:38;;;;;;;;;;;3.20;99.90;;;;;;5069898;28;19924;-64
2023/04/03 03:23:10;;;;;;;;;;;3.30;99.90;;;;;;5062387;28;19920;-64
2023/04/03 03:25:42;;;;;;;;;;;3.20;99.90;;;;;;5064232;28;20296;-64
2023/04/03 03:28:13;;;;;;;;;;;3.20;99.90;;;;;;5053027;28;19966;-63
2023/04/03 03:30:40;;;;;;;;;;;3.40;99.90;;;;;;5069877;28;19921;-63
2023/04/03 03:33:13;;;;;;;;;;;3.70;99.90;;;;;;5067172;28;19933;-63
2023/04/03 03:35:40;;;;;;;;;;;3.70;99.90;;;;;;5068691;28;19947;-64
2023/04/03 03:38:12;;;;;;;;;;;3.70;99.90;;;;;;5068120;28;19920;-64
2023/04/03 03:40:43;;;;;;;;;;;3.60;99.90;;;;;;5053066;28;19924;-63
2023/04/03 03:43:17;;;;;;;;;;;3.50;99.90;;;;;;5051790;28;20312;-63
2023/04/03 03:45:52;;;;;;;;;;;3.50;99.90;;;;;;5068500;28;19966;-63
2023/04/03 03:48:25;;;;;;;;;;;3.40;99.90;;;;;;5068848;28;19921;-63
2023/04/03 03:50:57;;;;;;;;;;;3.30;99.90;;;;;;5036314;28;19982;-64
2023/04/03 03:53:33;;;;;;;;;;;3.30;99.90;;;;;;5069333;28;20307;-64
2023/04/03 03:56:09;;;;;;;;;;;3.30;99.90;;;;;;5067400;28;20278;-63
2023/04/03 03:58:42;;;;;;;;;;;3.30;99.90;;;;;;5069195;28;19924;-63
2023/04/03 04:01:13;;;;;;;;;;;3.30;99.90;;;;;;5069796;28;20335;-63
2023/04/03 04:03:47;;;;;;;;;;;3.30;99.90;;;;;;5037183;28;19927;-63
2023/04/03 04:06:23;;;;;;;;;;;3.20;99.90;;;;;;5049857;28;20016;-64
2023/04/03 04:08:58;;;;;;;;;;;3.20;99.90;;;;;;5067443;28;19927;-64
2023/04/03 04:11:32;;;;;;;;;;;3.20;99.90;;;;;;5068268;28;19943;-63
2023/04/03 04:14:04;;;;;;;;;;;3.20;99.90;;;;;;5070639;28;19930;-64
2023/04/03 04:16:36;;;;;;;;;;;3.10;99.90;;;;;;5066779;28;19974;-63
2023/04/03 04:19:08;;;;;;;;;;;3.10;99.90;;;;;;5069505;28;19943;-63
2023/04/03 04:21:41;;;;;;;;;;;3.20;99.90;;;;;;5068319;28;20316;-63
2023/04/03 04:24:13;;;;;;;;;;;3.20;99.90;;;;;;5069202;28;19920;-64
2023/04/03 04:26:40;;;;;;;;;;;3.20;99.90;;;;;;5049029;28;20300;-63
2023/04/03 04:29:14;;;;;;;;;;;3.10;99.90;;;;;;5069506;28;19924;-63
2023/04/03 04:31:48;;;;;;;;;;;3.20;99.90;;;;;;5052329;28;19920;-64
2023/04/03 04:34:21;;;;;;;;;;;3.20;99.90;;;;;;5056120;28;19920;-63
2023/04/03 04:36:48;;;;;;;;;;;3.20;99.90;;;;;;5055760;28;19927;-63
2023/04/03 04:39:20;;;;;;;;;;;3.20;99.90;;;;;;5056075;28;20040;-63
2023/04/03 04:41:46;;;;;;;;;;;3.20;99.90;;;;;;5072585;28;19931;-64
2023/04/03 04:44:13;;;;;;;;;;;3.20;99.90;;;;;;5072533;28;19924;-64
2023/04/03 04:46:45;;;;;;;;;;;3.20;99.90;;;;;;5055643;28;19927;-64
2023/04/03 04:49:17;;;;;;;;;;;3.20;99.90;;;;;;5073707;28;19951;-63
2023/04/03 04:51:48;;;;;;;;;;;3.20;99.90;;;;;;5054866;28;20302;-63
2023/04/03 04:54:26;;;;;;;;;;;3.20;99.90;;;;;;5055581;28;19950;-63
2023/04/03 04:56:58;;;;;;;;;;;3.20;99.90;;;;;;5052818;28;19925;-63
2023/04/03 04:59:30;;;;;;;;;;;3.20;99.90;;;;;;5054930;28;19924;-63
2023/04/03 05:02:02;;;;;;;;;;;3.20;99.90;;;;;;5055415;28;19970;-63
2023/04/03 05:04:35;;;;;;;;;;;3.20;99.90;;;;;;5053036;28;19928;-63
2023/04/03 05:07:13;;;;;;;;;;;3.20;99.90;;;;;;5071131;28;19924;-63
2023/04/03 05:09:42;;;;;;;;;;;3.20;99.90;;;;;;5072031;28;19948;-63
2023/04/03 05:12:16;;;;;;;;;;;3.20;99.90;;;;;;5072319;28;19947;-64
2023/04/03 05:14:53;;;;;;;;;;;3.20;99.90;;;;;;5055392;28;20372;-64
2023/04/03 05:17:26;;;;;;;;;;;3.20;99.90;;;;;;5053181;28;20297;-64
2023/04/03 05:19:55;;;;;;;;;;;3.10;99.90;;;;;;5071816;28;19924;-63
2023/04/03 05:22:28;;;;;;;;;;;3.10;99.90;;;;;;5058149;28;19928;-64
2023/04/03 05:25:05;;;;;;;;;;;3.20;99.90;;;;;;5073508;28;19924;-64
2023/04/03 05:27:40;;;;;;;;;;;3.20;99.90;;;;;;5057468;28;19969;-64
2023/04/03 05:30:07;;;;;;;;;;;3.20;99.90;;;;;;5038656;28;20392;-63
2023/04/03 05:32:41;;;;;;;;;;;3.20;99.90;;;;;;5056976;28;19932;-64
2023/04/03 05:35:27;;;;;;;;;;;3.20;99.90;;;;;;5069027;28;20446;-63
2023/04/03 05:38:02;;;;;;;;;;;3.20;99.90;;;;;;5053002;28;19920;-63
2023/04/03 05:40:33;;;;;;;;;;;3.20;99.90;;;;;;5065373;28;19927;-64
2023/04/03 05:43:00;;;;;;;;;;;3.20;99.90;;;;;;5072326;28;20358;-63
2023/04/03 05:45:35;;;;;;;;;;;3.20;99.90;;;;;;5070513;28;19921;-63
2023/04/03 05:48:07;;;;;;;;;;;3.20;99.90;;;;;;5052108;28;20412;-63
2023/04/03 05:50:41;;;;;;;;;;;3.20;99.90;;;;;;5054111;28;19926;-64
2023/04/03 05:53:24;;;;;;;;;;;3.30;99.90;;;;;;5039095;28;19930;-63
2023/04/03 05:56:00;;;;;;;;;;;3.30;99.90;;;;;;5069697;28;19964;-63
2023/04/03 05:58:37;;;;;;;;;;;3.30;99.90;;;;;;5050446;28;19935;-63
2023/04/03 06:01:05;;;;;;;;;;;3.30;99.90;;;;;;5071201;28;19927;-63
2023/04/03 06:03:39;;;;;;;;;;;3.30;99.90;;;;;;5053813;28;19928;-64
2023/04/03 06:06:13;;;;;;;;;;;3.30;99.90;;;;;;5051736;28;19924;-63
2023/04/03 06:08:46;;;;;;;;;;;3.30;99.90;;;;;;5053239;28;20734;-64
2023/04/03 06:11:12;;;;;;;;;;;3.30;99.90;;;;;;5072016;28;19921;-63
2023/04/03 06:13:39;;;;;;;;;;;3.30;99.90;;;;;;5054098;28;20380;-63
2023/04/03 06:16:06;;;;;;;;;;;3.30;99.90;;;;;;5053726;28;19963;-63
2023/04/03 06:18:38;;;;;;;;;;;3.30;99.90;;;;;;5072179;28;20441;-63
2023/04/03 06:21:11;;;;;;;;;;;3.30;99.90;;;;;;5070037;28;20355;-63
2023/04/03 06:23:38;;;;;;;;;;;3.30;99.90;;;;;;5066466;28;19932;-63
2023/04/03 06:26:05;;;;;;;;;;;3.30;99.90;;;;;;5069455;28;20304;-63
2023/04/03 06:28:37;;;;;;;;;;;3.40;99.90;;;;;;5065660;28;19927;-63
2023/04/03 06:31:09;;;;;;;;;;;3.40;99.90;;;;;;5051660;28;19932;-63
2023/04/03 06:33:35;;;;;;;;;;;3.40;99.90;;;;;;5065160;28;20393;-63
2023/04/03 06:36:07;;;;;;;;;;;3.50;99.90;;;;;;5054012;28;19930;-63
2023/04/03 06:38:39;;;;;;;;;;;3.50;99.90;;;;;;5048423;28;19926;-63
2023/04/03 06:41:11;;;;;;;;;;;3.50;99.90;;;;;;5052578;28;19926;-63
2023/04/03 06:43:44;;;;;;;;;;;3.50;99.90;;;;;;5051629;28;20351;-63
2023/04/03 06:46:17;;;;;;;;;;;3.60;99.90;;;;;;5068835;28;20708;-63
2023/04/03 06:48:49;;;;;;;;;;;3.70;99.90;;;;;;5052890;28;19920;-62
2023/04/03 06:51:22;;;;;;;;;;;3.80;99.90;;;;;;5067569;28;19925;-62
2023/04/03 06:53:55;;;;;;;;;;;3.80;99.90;;;;;;5051868;28;19920;-62
2023/04/03 06:56:22;;;;;;;;;;;3.80;99.90;;;;;;5051564;28;20019;-62
2023/04/03 06:58:56;;;;;;;;;;;3.70;99.90;;;;;;5069589;28;19943;-62
2023/04/03 07:01:29;;;;;;;;;;;3.70;99.90;;;;;;5050710;28;20328;-63
2023/04/03 07:04:01;;;;;;;;;;;3.60;99.90;;;;;;5050578;28;19924;-62
2023/04/03 07:06:33;;;;;;;;;;;3.70;99.90;;;;;;5071468;28;19926;-62
2023/04/03 07:09:05;;;;;;;;;;;3.70;99.90;;;;;;5071498;28;19924;-62
2023/04/03 07:11:36;;;;;;;;;;;3.70;99.90;;;;;;5071377;28;19928;-63
2023/04/03 07:14:08;;;;;;;;;;;3.70;99.90;;;;;;5071322;28;19924;-62
2023/04/03 07:16:39;;;;;;;;;;;3.70;99.90;;;;;;5069135;28;20281;-62
2023/04/03 07:19:11;;;;;;;;;;;3.70;99.90;;;;;;5054299;28;19920;-62
2023/04/03 07:21:43;;;;;;;;;;;3.70;99.90;;;;;;5037339;28;19921;-62
2023/04/03 07:24:15;;;;;;;;;;;3.80;99.90;;;;;;5067611;28;19920;-62
2023/04/03 07:26:51;;;;;;;;;;;3.80;99.90;;;;;;5053153;28;20355;-62
2023/04/03 07:29:18;;;;;;;;;;;3.80;99.90;;;;;;5051779;28;19931;-62
2023/04/03 07:31:49;;;;;;;;;;;3.80;99.90;;;;;;5070798;28;19924;-62
2023/04/03 07:34:21;;;;;;;;;;;3.90;99.90;;;;;;5070873;28;19920;-62
2023/04/03 07:36:53;;;;;;;;;;;4.00;99.90;;;;;;5068355;28;19966;-63
2023/04/03 07:39:20;;;;;;;;;;;4.10;99.90;;;;;;5069898;28;19932;-62
2023/04/03 07:41:51;;;;;;;;;;;4.10;99.90;;;;;;5053956;28;19920;-62
2023/04/03 07:44:23;;;;;;;;;;;4.20;99.90;;;;;;5070691;28;19935;-62
2023/04/03 07:46:55;;;;;;;;;;;4.20;99.90;;;;;;5052316;28;19920;-62
2023/04/03 07:49:28;;;;;;;;;;;4.30;99.90;;;;;;5071030;28;19946;-62
2023/04/03 07:52:00;;;;;;;;;;;4.40;99.90;;;;;;5070787;28;19924;-62
2023/04/03 07:54:32;;;;;;;;;;;4.40;99.90;;;;;;5070800;28;20399;-63
2023/04/03 07:57:03;;;;;;;;;;;4.50;99.90;;;;;;5071101;28;19924;-62
2023/04/03 07:59:35;;;;;;;;;;;4.50;99.90;;;;;;5070578;28;19973;-62
2023/04/03 08:02:08;;;;;;;;;;;4.60;99.90;;;;;;5070916;28;19942;-62
2023/04/03 08:04:40;;;;;;;;;;;4.60;99.90;;;;;;5069160;28;19943;-62
2023/04/03 08:07:07;;;;;;;;;;;4.60;99.90;;;;;;5070544;28;19920;-62
2023/04/03 08:09:39;;;;;;;;;;;4.60;99.90;;;;;;5074653;28;19949;-62
2023/04/03 08:12:11;;;;;;;;;;;4.60;99.90;;;;;;5073442;28;20296;-62
2023/04/03 08:14:42;;;;;;;;;;;4.70;99.90;;;;;;5074477;28;19974;-62
2023/04/03 08:17:14;;;;;;;;;;;4.70;99.90;;;;;;5072901;28;19924;-62
2023/04/03 08:19:46;;;;;;;;;;;4.80;99.90;;;;;;5073815;28;19928;-62
2023/04/03 08:22:17;;;;;;;;;;;4.80;99.90;;;;;;5074319;28;19924;-62
2023/04/03 08:24:49;;;;;;;;;;;4.80;99.90;;;;;;5074243;28;20300;-62
2023/04/03 08:27:21;;;;;;;;;;;4.80;99.90;;;;;;5073996;28;20380;-62
2023/04/03 08:29:47;;;;;;;;;;;4.90;99.90;;;;;;5073127;28;20340;-62
2023/04/03 08:32:19;;;;;;;;;;;4.90;99.90;;;;;;5074202;28;19920;-62
2023/04/03 08:34:50;;;;;;;;;;;4.90;99.90;;;;;;5073241;28;20331;-62
2023/04/03 08:37:23;;;;;;;;;;;5.00;99.90;;;;;;5073790;28;19951;-62
2023/04/03 08:39:55;;;;;;;;;;;5.00;99.90;;;;;;5071174;28;19920;-62
2023/04/03 08:42:27;;;;;;;;;;;5.00;99.90;;;;;;5070522;28;20285;-62
2023/04/03 08:44:58;;;;;;;;;;;5.10;99.90;;;;;;5055812;28;19921;-62
2023/04/03 08:47:42;;;;;;;;;;;5.20;99.90;;;;;;5073833;28;19990;-62
2023/04/03 08:50:19;;;;;;;;;;;5.20;99.90;;;;;;5054832;28;20507;-62
2023/04/03 08:52:52;;;;;;;;;;;5.30;99.90;;;;;;5073704;28;20384;-62
2023/04/03 08:55:27;;;;;;;;;;;5.40;99.90;;;;;;5073279;28;20384;-62
2023/04/03 08:58:02;;;;;;;;;;;5.40;99.90;;;;;;5070434;28;19924;-62
2023/04/03 09:00:40;;;;;;;;;;;5.40;99.90;;;;;;5073759;28;20377;-63
2023/04/03 09:03:13;;;;;;;;;;;5.40;99.90;;;;;;5072719;28;20363;-63
2023/04/03 09:05:48;;;;;;;;;;;5.50;99.90;;;;;;5080007;28;19920;-63
2023/04/03 09:08:38;;;;;;;;;;;5.60;99.90;;;;;;5078406;28;19932;-63
2023/04/03 09:11:20;;;;;;;;;;;5.70;99.90;;;;;;5072192;28;19928;-63
2023/04/03 09:14:10;;;;;;;;;;;5.80;99.90;;;;;;5072072;28;20419;-63
2023/04/03 09:16:42;;;;;;;;;;;6.00;99.90;;;;;;5072098;28;20269;-62
2023/04/03 09:19:14;;;;;;;;;;;6.10;99.90;;;;;;5071978;28;19928;-62
2023/04/03 09:21:46;;;;;;;;;;;6.10;99.90;;;;;;5055526;28;20043;-62
2023/04/03 09:24:18;;;;;;;;;;;6.20;99.90;;;;;;5073069;28;19921;-62
2023/04/03 09:26:59;;;;;;;;;;;6.20;99.90;;;;;;5072701;28;19936;-62
2023/04/03 09:29:31;;;;;;;;;;;6.20;99.90;;;;;;5037694;28;20380;-63
2023/04/03 09:32:15;;;;;;;;;;;6.30;99.90;;;;;;5074058;28;19928;-62
2023/04/03 09:34:42;;;;;;;;;;;6.30;99.90;;;;;;5053495;28;19968;-63
2023/04/03 09:37:33;;;;;;;;;;;6.40;99.90;;;;;;5065844;28;19924;-63
2023/04/03 09:40:05;;;;;;;;;;;6.40;99.90;;;;;;5062705;28;19924;-64
2023/04/03 09:42:32;;;;;;;;;;;6.50;99.90;;;;;;5067401;28;19943;-63
2023/04/03 09:45:04;;;;;;;;;;;6.60;99.90;;;;;;5070967;28;19920;-63
2023/04/03 09:47:37;;;;;;;;;;;6.60;99.90;;;;;;5074091;28;20282;-63
2023/04/03 09:50:09;;;;;;;;;;;6.60;99.90;;;;;;5072170;28;19967;-63
2023/04/03 09:52:42;;;;;;;;;;;6.60;99.90;;;;;;5052067;28;19920;-63
2023/04/03 09:55:14;;;;;;;;;;;6.60;99.90;;;;;;5069338;28;19924;-63
2023/04/03 09:57:46;;;;;;;;;;;6.60;99.90;;;;;;5069703;28;19928;-63
2023/04/03 10:00:37;;;;;;;;;;;6.60;99.90;;;;;;5039055;28;19947;-63
2023/04/03 10:03:04;;;;;;;;;;;6.60;99.90;;;;;;5067231;28;19921;-63
2023/04/03 10:05:31;;;;;;;;;;;6.50;99.90;;;;;;5072557;28;19920;-63
2023/04/03 10:08:11;;;;;;;;;;;6.40;99.90;;;;;;5064076;28;19950;-63
2023/04/03 10:10:44;;;;;;;;;;;6.40;99.90;;;;;;5072511;28;19920;-63
2023/04/03 10:13:20;;;;;;;;;;;6.30;99.90;;;;;;5071839;28;19928;-63
2023/04/03 10:15:55;;;;;;;;;;;6.20;99.90;;;;;;5064166;28;19952;-63
2023/04/03 10:18:31;;;;;;;;;;;6.10;99.90;;;;;;5051693;28;19966;-63
2023/04/03 10:21:06;;;;;;;;;;;6.10;99.90;;;;;;5053395;28;19920;-63
2023/04/03 10:23:46;;;;;;;;;;;6.00;99.90;;;;;;5070543;28;20398;-63
2023/04/03 10:26:36;;;;;;;;;;;6.00;99.90;;;;;;5070879;28;19924;-63
2023/04/03 10:29:16;;;;;;;;;;;6.00;99.90;;;;;;5071728;28;19927;-63
2023/04/03 10:32:07;;;;;;;;;;;6.00;99.90;;;;;;5054283;28;19942;-63
2023/04/03 10:34:43;;;;;;;;;;;6.00;99.90;;;;;;5072087;28;19967;-63
2023/04/03 10:37:22;;;;;;;;;;;5.90;99.90;;;;;;5065711;28;19925;-62
2023/04/03 10:39:56;;;;;;;;;;;5.90;99.90;;;;;;5053717;28;19927;-63
2023/04/03 10:42:40;;;;;;;;;;;5.80;99.90;;;;;;5070599;28;19928;-63
2023/04/03 10:45:22;;;;;;;;;;;5.80;99.90;;;;;;5052858;28;19931;-63
2023/04/03 10:48:19;;;;;;;;;;;5.70;99.90;;;;;;5069707;28;19928;-63
2023/04/03 10:51:09;;;;;;;;;;;5.70;99.90;;;;;;5070994;28;19994;-63
2023/04/03 10:53:46;;;;;;;;;;;5.70;99.90;;;;;;5071796;28;20284;-63
2023/04/03 10:56:21;;;;;;;;;;;5.70;99.90;;;;;;5037917;28;19927;-63
2023/04/03 10:58:58;;;;;;;;;;;5.70;99.90;;;;;;5067120;28;19920;-63
2023/04/03 11:01:34;;;;;;;;;;;5.70;99.90;;;;;;5051915;28;19921;-63
2023/04/03 11:04:07;;;;;;;;;;;5.70;99.90;;;;;;5071486;28;19932;-63
2023/04/03 11:06:43;;;;;;;;;;;5.70;99.90;;;;;;5069785;28;19920;-62
2023/04/03 11:09:26;;;;;;;;;;;5.80;99.90;;;;;;5071327;28;19924;-63
2023/04/03 11:12:03;;;;;;;;;;;5.90;99.90;;;;;;5067290;28;19921;-63
2023/04/03 11:14:36;;;;;;;;;;;6.00;99.90;;;;;;5068800;28;19946;-63
2023/04/03 11:17:17;;;;;;;;;;;6.00;99.90;;;;;;5070595;28;19920;-63
2023/04/03 11:20:00;;;;;;;;;;;6.10;99.90;;;;;;5068163;28;19952;-64
2023/04/03 11:22:34;;;;;;;;;;;6.20;99.90;;;;;;5067674;28;19924;-63
2023/04/03 11:25:16;;;;;;;;;;;6.30;99.90;;;;;;5069570;28;19932;-64
2023/04/03 11:27:55;;;;;;;;;;;6.30;99.90;;;;;;5064830;28;20474;-64
2023/04/03 11:30:30;;;;;;;;;;;6.30;99.90;;;;;;5068526;28;19920;-64
2023/04/03 11:33:02;;;;;;;;;;;6.30;99.90;;;;;;5067391;28;20104;-64
2023/04/03 11:35:34;;;;;;;;;;;6.20;99.90;;;;;;5068726;28;19920;-63
2023/04/03 11:38:02;;;;;;;;;;;6.10;99.90;;;;;;5052592;28;19931;-64
2023/04/03 11:40:36;;;;;;;;;;;6.10;99.90;;;;;;5054012;28;19924;-63
2023/04/03 11:43:17;;;;;;;;;;;6.00;99.90;;;;;;5040921;28;20134;-64
2023/04/03 11:45:52;;;;;;;;;;;5.90;99.90;;;;;;5074872;28;19920;-63
2023/04/03 11:48:28;;;;;;;;;;;5.90;99.90;;;;;;5070370;28;19920;-63
2023/04/03 11:51:21;;;;;;;;;;;5.90;99.90;;;;;;5072327;28;20816;-63
2023/04/03 11:53:53;;;;;;;;;;;5.90;99.90;;;;;;5061697;28;20411;-63
2023/04/03 11:56:27;;;;;;;;;;;6.00;99.90;;;;;;5070228;28;19921;-63
2023/04/03 11:59:05;;;;;;;;;;;6.00;99.90;;;;;;5070268;28;20331;-63
2023/04/03 12:01:48;;;;;;;;;;;6.20;99.90;;;;;;5071382;28;20407;-63
2023/04/03 12:04:21;;;;;;;;;;;6.20;99.90;;;;;;5073104;28;19974;-64
2023/04/03 12:06:48;;;;;;;;;;;6.30;99.90;;;;;;5073966;28;19924;-63
2023/04/03 12:09:32;;;;;;;;;;;6.30;99.90;;;;;;5066606;28;19928;-63
2023/04/03 12:12:23;;;;;;;;;;;6.40;99.90;;;;;;5056210;28;19943;-63
2023/04/03 12:14:50;;;;;;;;;;;6.40;99.90;;;;;;5071111;28;19924;-63
2023/04/03 12:17:23;;;;;;;;;;;6.50;99.90;;;;;;5072383;28;19924;-64
2023/04/03 12:19:55;;;;;;;;;;;6.50;99.90;;;;;;5073002;28;19920;-63
2023/04/03 12:22:27;;;;;;;;;;;6.50;99.90;;;;;;5072281;28;20304;-64
2023/04/03 12:25:19;;;;;;;;;;;6.50;99.90;;;;;;5068576;28;19924;-64
2023/04/03 12:27:47;;;;;;;;;;;6.40;99.90;;;;;;5057945;28;20547;-64
2023/04/03 12:30:22;;;;;;;;;;;6.40;99.90;;;;;;5053045;28;19951;-69
2023/04/03 12:33:13;;;;;;;;;;;6.30;99.90;;;;;;5054773;28;19920;-64
2023/04/03 12:35:53;;;;;;;;;;;6.40;99.90;;;;;;5072198;28;19924;-63
2023/04/03 12:38:27;;;;;;;;;;;6.40;99.90;;;;;;5072590;28;20454;-63
2023/04/03 12:41:10;;;;;;;;;;;6.30;99.90;;;;;;5074211;28;19926;-64
2023/04/03 12:43:42;;;;;;;;;;;6.40;99.90;;;;;;5053784;28;19920;-63
2023/04/03 12:46:11;;;;;;;;;;;6.40;99.90;;;;;;5055184;28;19920;-63
2023/04/03 12:48:55;;;;;;;;;;;6.40;99.90;;;;;;5066695;28;19970;-64
2023/04/03 12:51:44;;;;;;;;;;;6.50;99.90;;;;;;5065002;28;19925;-63
2023/04/03 12:54:19;;;;;;;;;;;6.60;99.90;;;;;;5069186;28;19929;-64
2023/04/03 12:56:51;;;;;;;;;;;6.60;99.90;;;;;;5043247;28;19931;-64
2023/04/03 12:59:24;;;;;;;;;;;6.60;99.90;;;;;;5071294;28;19926;-64
2023/04/03 13:01:57;;;;;;;;;;;6.60;99.90;;;;;;5070574;28;20208;-64
2023/04/03 13:04:31;;;;;;;;;;;6.70;99.90;;;;;;5067282;28;19927;-63
2023/04/03 13:07:03;;;;;;;;;;;6.80;99.90;;;;;;5071150;28;19974;-63
2023/04/03 13:09:35;;;;;;;;;;;6.80;99.90;;;;;;5069997;28;19924;-63
2023/04/03 13:12:11;;;;;;;;;;;6.90;99.90;;;;;;5073598;28;20047;-63
2023/04/03 13:14:38;;;;;;;;;;;7.10;99.90;;;;;;5072106;28;20309;-63
2023/04/03 13:17:12;;;;;;;;;;;7.20;99.90;;;;;;5056040;28;19921;-63
2023/04/03 13:19:46;;;;;;;;;;;7.20;99.90;;;;;;5053020;28;19924;-63
2023/04/03 13:22:38;;;;;;;;;;;7.30;99.90;;;;;;5071506;28;19924;-64
2023/04/03 13:25:12;;;;;;;;;;;7.30;99.90;;;;;;5072783;28;19921;-63
2023/04/03 13:27:44;;;;;;;;;;;7.40;99.90;;;;;;5071887;28;19947;-63
2023/04/03 13:30:21;;;;;;;;;;;7.50;99.90;;;;;;5068421;28;19967;-63
2023/04/03 13:32:54;;;;;;;;;;;7.40;99.90;;;;;;5072094;28;19991;-63
2023/04/03 13:35:26;;;;;;;;;;;7.30;99.90;;;;;;5068755;28;19920;-63
2023/04/03 13:37:59;;;;;;;;;;;7.30;99.90;;;;;;5073149;28;19921;-63
2023/04/03 13:40:31;;;;;;;;;;;7.40;99.90;;;;;;5054924;28;19951;-63
2023/04/03 13:43:16;;;;;;;;;;;7.40;99.90;;;;;;5071729;28;19928;-63
2023/04/03 13:45:57;;;;;;;;;;;7.50;99.90;;;;;;5052475;28;19928;-63
2023/04/03 13:48:34;;;;;;;;;;;7.60;99.90;;;;;;5068822;28;19924;-64
2023/04/03 13:51:16;;;;;;;;;;;7.70;99.90;;;;;;5053219;28;19920;-63
2023/04/03 13:53:53;;;;;;;;;;;7.80;99.90;;;;;;5053599;28;19920;-64
2023/04/03 13:56:25;;;;;;;;;;;7.80;99.90;;;;;;5034740;28;19975;-66
2023/04/03 13:58:57;;;;;;;;;;;7.70;99.90;;;;;;5069332;28;19943;-65
2023/04/03 14:01:39;;;;;;;;;;;7.70;99.90;;;;;;5065064;28;20425;-65
2023/04/03 14:04:19;;;;;;;;;;;7.60;99.90;;;;;;5048256;28;19947;-65
2023/04/03 14:06:52;;;;;;;;;;;7.50;99.90;;;;;;5052450;28;19974;-66
2023/04/03 14:09:25;;;;;;;;;;;7.50;99.90;;;;;;5051887;28;20339;-66
2023/04/03 14:11:58;;;;;;;;;;;7.30;99.90;;;;;;5072340;28;20400;-66
2023/04/03 14:14:32;;;;;;;;;;;7.30;99.90;;;;;;5069677;28;19966;-65
2023/04/03 14:17:12;;;;;;;;;;;7.10;99.90;;;;;;5066732;28;19924;-66
2023/04/03 14:19:40;;;;;;;;;;;7.10;99.90;;;;;;5049829;28;19921;-65
2023/04/03 14:22:16;;;;;;;;;;;6.90;99.90;;;;;;5054870;28;19925;-66
2023/04/03 14:24:44;;;;;;;;;;;6.90;99.90;;;;;;5071226;28;19943;-65
2023/04/03 14:27:19;;;;;;;;;;;6.90;99.90;;;;;;5067129;28;20347;-66
2023/04/03 14:29:53;;;;;;;;;;;6.90;99.90;;;;;;5049223;28;20358;-66
2023/04/03 14:32:25;;;;;;;;;;;6.80;99.90;;;;;;5052745;28;19932;-66
2023/04/03 14:34:58;;;;;;;;;;;6.90;99.90;;;;;;5053061;28;19924;-65
2023/04/03 14:37:26;;;;;;;;;;;6.90;99.90;;;;;;5068394;28;19928;-66
2023/04/03 14:39:59;;;;;;;;;;;6.90;99.90;;;;;;5062432;28;19925;-66
2023/04/03 14:42:32;;;;;;;;;;;6.90;99.90;;;;;;5058884;28;19921;-66
2023/04/03 14:45:06;;;;;;;;;;;6.90;99.90;;;;;;5051699;28;19928;-66
2023/04/03 14:47:56;;;;;;;;;;;6.90;99.90;;;;;;5065146;28;19924;-66
2023/04/03 14:50:28;;;;;;;;;;;7.00;99.90;;;;;;5069156;28;20377;-66
2023/04/03 14:53:00;;;;;;;;;;;7.00;99.90;;;;;;5069802;28;19939;-66
2023/04/03 14:55:31;;;;;;;;;;;7.10;99.90;;;;;;5051800;28;19931;-66
2023/04/03 14:58:03;;;;;;;;;;;7.20;99.90;;;;;;5069329;28;19920;-66
2023/04/03 15:00:30;;;;;;;;;;;7.30;99.90;;;;;;5069784;28;19924;-66
2023/04/03 15:03:02;;;;;;;;;;;7.50;99.90;;;;;;5037552;28;19993;-66
2023/04/03 15:05:35;;;;;;;;;;;7.90;99.90;;;;;;5033851;28;19931;-66
2023/04/03 15:08:16;;;;;;;;;;;8.20;99.90;;;;;;5068380;28;19921;-66